createdAt,value
2023-11-26T00:01:05.964Z,100
2023-11-26T00:11:05.806Z,100
2023-11-26T00:21:05.841Z,100
2023-11-26T00:31:05.805Z,100
2023-11-26T00:41:05.769Z,100
2023-11-26T00:51:05.710Z,100
2023-11-26T01:01:05.737Z,100
2023-11-26T01:11:05.906Z,100
2023-11-26T01:21:05.880Z,100
2023-11-26T01:31:06.019Z,100
2023-11-26T01:41:05.941Z,100
2023-11-26T01:51:05.896Z,100
2023-11-26T02:01:05.911Z,100
2023-11-26T02:11:05.948Z,100
2023-11-26T02:21:05.955Z,100
2023-11-26T02:31:05.986Z,100
2023-11-26T02:41:05.973Z,100
2023-11-26T02:51:05.945Z,100
2023-11-26T03:01:05.953Z,100
2023-11-26T03:11:06.004Z,100
2023-11-26T03:21:05.966Z,100
2023-11-26T03:31:06.014Z,100
2023-11-26T03:41:05.993Z,100
2023-11-26T03:51:06.121Z,100
2023-11-26T04:01:06.024Z,100
2023-11-26T04:11:06.098Z,100
2023-11-26T04:21:06.054Z,100
2023-11-26T04:31:06.051Z,100
2023-11-26T04:41:06.122Z,100
2023-11-26T04:51:06.236Z,100
2023-11-26T05:01:06.078Z,100
2023-11-26T05:11:06.013Z,100
2023-11-26T05:21:05.921Z,100
2023-11-26T05:31:05.959Z,100
2023-11-26T05:41:05.985Z,100
2023-11-26T05:51:06.394Z,100
2023-11-26T06:01:06.004Z,100
2023-11-26T06:11:05.977Z,100
2023-11-26T06:21:06.004Z,100
2023-11-26T06:31:06.027Z,100
2023-11-26T06:41:06.020Z,98
2023-11-26T06:51:05.997Z,98
2023-11-26T07:01:06.048Z,98
2023-11-26T07:11:06.047Z,97
2023-11-26T07:21:06.064Z,96
2023-11-26T07:31:06.039Z,96
2023-11-26T07:41:06.100Z,100
2023-11-26T07:51:06.077Z,100
2023-11-26T08:01:06.081Z,100
2023-11-26T08:11:06.094Z,100
2023-11-26T08:21:06.113Z,100
2023-11-26T08:31:06.119Z,100
2023-11-26T08:41:06.124Z,100
2023-11-26T08:51:06.121Z,100
2023-11-26T09:01:06.096Z,99
2023-11-26T09:11:06.109Z,96
2023-11-26T09:21:06.239Z,93
2023-11-26T09:31:06.189Z,85
2023-11-26T09:41:06.103Z,78
2023-11-26T09:51:06.233Z,75
2023-11-26T10:01:06.460Z,77
2023-11-26T10:11:06.114Z,71
2023-11-26T10:21:06.101Z,62
2023-11-26T10:31:06.163Z,64
2023-11-26T10:41:06.094Z,59
2023-11-26T10:51:09.604Z,61
2023-11-26T11:01:06.127Z,61
2023-11-26T11:11:06.088Z,58
2023-11-26T11:21:06.109Z,60
2023-11-26T11:31:06.099Z,61
2023-11-26T11:41:06.086Z,57
2023-11-26T11:51:06.256Z,60
2023-11-26T12:01:06.268Z,54
2023-11-26T12:11:06.082Z,55
2023-11-26T12:21:06.236Z,47
2023-11-26T12:31:06.325Z,43
2023-11-26T12:41:06.261Z,40
2023-11-26T12:51:06.218Z,39
2023-11-26T13:01:06.115Z,37
2023-11-26T13:11:06.319Z,38
2023-11-26T13:21:06.216Z,38
2023-11-26T13:31:06.122Z,38
2023-11-26T13:41:06.491Z,40
2023-11-26T13:51:06.244Z,41
2023-11-26T14:01:06.303Z,39
2023-11-26T14:11:06.226Z,40
2023-11-26T14:21:06.371Z,41
2023-11-26T14:31:06.305Z,41
2023-11-26T14:41:06.148Z,41
2023-11-26T14:51:06.347Z,43
2023-11-26T15:01:06.246Z,43
2023-11-26T15:11:06.260Z,45
2023-11-26T15:21:06.236Z,47
2023-11-26T15:31:06.191Z,49
2023-11-26T15:41:06.102Z,51
2023-11-26T15:51:06.101Z,53
2023-11-26T16:01:06.268Z,54
2023-11-26T16:11:06.116Z,60
2023-11-26T16:21:06.106Z,64
2023-11-26T16:31:06.166Z,71
2023-11-26T16:41:06.100Z,76
2023-11-26T16:51:06.130Z,83
2023-11-26T17:01:06.191Z,93
2023-11-26T17:11:06.153Z,100
2023-11-26T17:21:06.182Z,100
2023-11-26T17:31:06.163Z,100
2023-11-26T17:41:06.148Z,100
2023-11-26T17:51:06.186Z,100
2023-11-26T18:01:06.233Z,100
2023-11-26T18:11:06.172Z,100
2023-11-26T18:21:06.187Z,100
2023-11-26T18:31:06.276Z,100
2023-11-26T18:41:06.213Z,100
2023-11-26T18:51:06.245Z,100
2023-11-26T19:01:06.273Z,100
2023-11-26T19:11:06.230Z,100
2023-11-26T19:21:06.236Z,100
2023-11-26T19:31:06.300Z,100
2023-11-26T19:41:06.318Z,100
2023-11-26T19:51:06.404Z,100
2023-11-26T20:11:06.307Z,100
2023-11-26T20:21:06.379Z,100
2023-11-26T20:31:08.375Z,100
2023-11-26T20:41:06.444Z,100
2023-11-26T20:51:06.552Z,100
2023-11-26T21:01:06.531Z,100
2023-11-26T21:11:07.955Z,100
2023-11-26T21:21:06.483Z,100
2023-11-26T21:31:06.570Z,100
2023-11-26T21:41:07.610Z,100
2023-11-26T21:51:06.535Z,100
2023-11-26T22:01:06.604Z,100
2023-11-26T22:11:06.533Z,100
2023-11-26T22:21:06.579Z,100
2023-11-26T22:31:06.609Z,100
2023-11-26T22:41:06.569Z,99
2023-11-26T22:51:06.613Z,97
2023-11-26T23:01:06.704Z,98
2023-11-26T23:11:06.592Z,100
2023-11-26T23:21:06.648Z,100
2023-11-26T23:31:06.720Z,100
2023-11-26T23:41:08.687Z,100
2023-11-26T23:51:06.676Z,100
